Time;durP1;ratioP1;P1;durP2;ratioP2;P2;SDS_P1;SDS_P2;PMS_P1;PMS_P2;Temp;Humidity;BMP_temperature;BMP_pressure;BME280_temperature;BME280_humidity;BME280_pressure;Samples;Min_cycle;Max_cycle;Signal;HPM_P1;HPM_P2
2022/01/07 00:01:03;;;;;;;5.47;3.50;;;;;;;;;;4994559;28;20228;-49
2022/01/07 00:03:29;;;;;;;6.03;3.90;;;;;;;;;;4994952;28;20454;-49
2022/01/07 00:05:55;;;;;;;6.22;4.03;;;;;;;;;;4994831;28;20629;-49
2022/01/07 00:08:21;;;;;;;6.87;4.33;;;;;;;;;;4994882;28;20238;-49
2022/01/07 00:10:47;;;;;;;7.45;3.83;;;;;;;;;;4994437;28;20930;-49
2022/01/07 00:13:13;;;;;;;6.65;3.63;;;;;;;;;;4994785;28;20177;-50
2022/01/07 00:15:40;;;;;;;7.97;4.10;;;;;;;;;;4994716;28;20180;-50
2022/01/07 00:18:07;;;;;;;7.80;4.65;;;;;;;;;;4994544;28;20193;-49
2022/01/07 00:20:33;;;;;;;6.40;3.92;;;;;;;;;;4994617;28;20512;-49
2022/01/07 00:22:59;;;;;;;8.23;3.78;;;;;;;;;;4994447;28;20189;-49
2022/01/07 00:25:25;;;;;;;4.27;3.27;;;;;;;;;;4994487;28;20188;-49
2022/01/07 00:27:51;;;;;;;10.15;4.68;;;;;;;;;;4994521;28;20400;-49
2022/01/07 00:30:18;;;;;;;10.50;3.55;;;;;;;;;;4994359;28;20625;-49
2022/01/07 00:32:44;;;;;;;8.23;3.67;;;;;;;;;;4994099;28;20196;-49
2022/01/07 00:35:10;;;;;;;7.30;3.70;;;;;;;;;;4994471;28;20169;-49
2022/01/07 00:37:36;;;;;;;7.65;4.25;;;;;;;;;;4994286;28;20419;-49
2022/01/07 00:40:05;;;;;;;12.13;3.67;;;;;;;;;;4994213;28;20275;-49
2022/01/07 00:42:31;;;;;;;10.73;4.50;;;;;;;;;;4993056;28;20267;-49
2022/01/07 00:44:57;;;;;;;8.70;4.60;;;;;;;;;;4994240;28;20208;-49
2022/01/07 00:47:24;;;;;;;9.90;3.70;;;;;;;;;;4994140;28;20404;-49
2022/01/07 00:49:50;;;;;;;15.30;4.75;;;;;;;;;;4994114;28;20499;-50
2022/01/07 00:52:16;;;;;;;8.63;3.30;;;;;;;;;;4993760;28;20279;-51
2022/01/07 00:54:42;;;;;;;8.37;3.63;;;;;;;;;;4994019;28;20466;-49
2022/01/07 00:57:08;;;;;;;4.97;2.73;;;;;;;;;;4993990;28;20396;-49
2022/01/07 00:59:34;;;;;;;7.50;3.93;;;;;;;;;;4993869;28;20510;-49
2022/01/07 01:02:00;;;;;;;6.57;3.85;;;;;;;;;;4993506;28;20509;-49
2022/01/07 01:04:26;;;;;;;6.55;3.83;;;;;;;;;;4993896;28;20260;-49
2022/01/07 01:06:52;;;;;;;5.07;3.57;;;;;;;;;;4993797;28;20216;-49
2022/01/07 01:09:18;;;;;;;7.82;4.20;;;;;;;;;;4993726;28;20551;-49
2022/01/07 01:11:44;;;;;;;7.30;4.10;;;;;;;;;;4993458;28;20741;-49
2022/01/07 01:14:10;;;;;;;13.60;4.63;;;;;;;;;;4993627;28;20412;-49
2022/01/07 01:16:36;;;;;;;4.60;3.90;;;;;;;;;;4993506;28;20300;-49
2022/01/07 01:19:03;;;;;;;7.90;3.88;;;;;;;;;;4993508;28;20458;-49
2022/01/07 01:21:30;;;;;;;8.23;4.47;;;;;;;;;;4993241;28;20189;-49
2022/01/07 01:23:56;;;;;;;13.60;4.15;;;;;;;;;;4993352;28;20179;-50
2022/01/07 01:26:22;;;;;;;8.43;4.53;;;;;;;;;;4993414;28;20165;-50
2022/01/07 01:28:48;;;;;;;7.05;3.30;;;;;;;;;;4993398;28;20507;-51
2022/01/07 01:31:16;;;;;;;5.80;3.83;;;;;;;;;;4992896;28;20304;-49
2022/01/07 01:33:42;;;;;;;6.65;3.70;;;;;;;;;;4993290;28;20408;-49
2022/01/07 01:36:09;;;;;;;4.97;3.97;;;;;;;;;;4993394;28;20177;-49
2022/01/07 01:38:35;;;;;;;8.18;3.83;;;;;;;;;;4993127;28;20199;-50
2022/01/07 01:41:01;;;;;;;3.75;2.70;;;;;;;;;;4992769;28;20280;-49
2022/01/07 01:43:30;;;;;;;5.28;3.67;;;;;;;;;;4993065;28;20165;-51
2022/01/07 01:45:56;;;;;;;6.88;3.65;;;;;;;;;;4993116;28;20165;-49
2022/01/07 01:48:23;;;;;;;6.43;3.93;;;;;;;;;;4993029;28;20290;-49
2022/01/07 01:50:50;;;;;;;9.45;4.40;;;;;;;;;;4992680;28;20406;-49
2022/01/07 01:53:16;;;;;;;10.23;4.40;;;;;;;;;;4992731;28;20212;-50
2022/01/07 01:55:42;;;;;;;4.85;4.00;;;;;;;;;;4992931;28;20196;-49
2022/01/07 01:58:08;;;;;;;6.97;4.15;;;;;;;;;;4992742;28;20176;-49
2022/01/07 02:00:34;;;;;;;8.43;3.60;;;;;;;;;;4991959;28;20515;-50
2022/01/07 02:03:00;;;;;;;5.25;4.72;;;;;;;;;;4992361;28;20189;-49
2022/01/07 02:05:29;;;;;;;7.23;3.90;;;;;;;;;;4992398;28;20165;-49
2022/01/07 02:07:55;;;;;;;12.57;4.68;;;;;;;;;;4992063;28;20397;-50
2022/01/07 02:10:21;;;;;;;9.95;4.22;;;;;;;;;;4992399;28;20169;-49
2022/01/07 02:12:47;;;;;;;11.70;4.30;;;;;;;;;;4992369;28;20271;-49
2022/01/07 02:15:14;;;;;;;13.40;4.45;;;;;;;;;;4992600;28;20173;-49
2022/01/07 02:17:41;;;;;;;10.70;4.72;;;;;;;;;;4992623;28;20701;-49
2022/01/07 02:20:08;;;;;;;9.80;4.35;;;;;;;;;;4992429;28;20697;-51
2022/01/07 02:22:34;;;;;;;24.20;3.55;;;;;;;;;;4991017;28;20201;-50
2022/01/07 02:25:00;;;;;;;5.43;3.83;;;;;;;;;;4992375;28;20188;-49
2022/01/07 02:27:26;;;;;;;3.90;3.50;;;;;;;;;;4992411;28;20165;-49
2022/01/07 02:30:17;;;;;;;7.07;4.90;;;;;;;;;;4992385;28;20891;-50
2022/01/07 02:32:43;;;;;;;6.72;3.83;;;;;;;;;;4992297;28;20441;-49
2022/01/07 02:35:09;;;;;;;8.05;3.50;;;;;;;;;;4992534;28;20172;-49
2022/01/07 02:37:36;;;;;;;7.68;4.57;;;;;;;;;;4992491;28;20199;-49
2022/01/07 02:40:02;;;;;;;8.07;4.70;;;;;;;;;;4992205;28;20724;-49
2022/01/07 02:42:29;;;;;;;15.05;4.55;;;;;;;;;;4992079;28;20668;-49
2022/01/07 02:44:55;;;;;;;6.60;4.30;;;;;;;;;;4992221;28;20172;-49
2022/01/07 02:47:21;;;;;;;6.70;4.25;;;;;;;;;;4992357;28;20165;-50
2022/01/07 02:49:48;;;;;;;6.47;3.85;;;;;;;;;;4992229;28;20181;-51
2022/01/07 02:52:14;;;;;;;6.45;3.90;;;;;;;;;;4992104;28;20207;-49
2022/01/07 02:54:40;;;;;;;9.10;5.53;;;;;;;;;;4992279;28;20173;-49
2022/01/07 02:57:06;;;;;;;7.30;4.40;;;;;;;;;;4992174;28;20220;-49
2022/01/07 02:59:32;;;;;;;7.93;4.63;;;;;;;;;;4991994;28;20543;-51
2022/01/07 03:01:58;;;;;;;5.22;4.40;;;;;;;;;;4991888;28;20185;-51
2022/01/07 03:04:26;;;;;;;6.10;4.23;;;;;;;;;;4992225;28;20192;-49
2022/01/07 03:06:52;;;;;;;9.32;4.40;;;;;;;;;;4995985;28;20414;-49
2022/01/07 03:09:18;;;;;;;7.63;4.63;;;;;;;;;;4995922;28;20172;-49
2022/01/07 03:11:45;;;;;;;8.75;4.18;;;;;;;;;;4995546;28;20200;-49
2022/01/07 03:14:11;;;;;;;9.02;4.47;;;;;;;;;;4995890;28;20593;-49
2022/01/07 03:16:39;;;;;;;10.88;4.72;;;;;;;;;;4997707;28;20196;-49
2022/01/07 03:19:06;;;;;;;4.82;4.43;;;;;;;;;;4995660;28;20661;-49
2022/01/07 03:21:31;;;;;;;7.10;4.47;;;;;;;;;;4995567;28;20189;-50
2022/01/07 03:23:57;;;;;;;7.50;5.03;;;;;;;;;;4995689;28;20185;-50
2022/01/07 03:26:24;;;;;;;8.87;4.83;;;;;;;;;;4995689;28;20533;-49
2022/01/07 03:28:50;;;;;;;15.10;6.45;;;;;;;;;;4995708;28;20404;-49
2022/01/07 03:31:16;;;;;;;10.30;5.03;;;;;;;;;;4995295;28;20193;-49
2022/01/07 03:33:42;;;;;;;6.17;5.03;;;;;;;;;;4995668;28;20450;-49
2022/01/07 03:36:08;;;;;;;5.28;4.65;;;;;;;;;;4995613;28;20408;-49
2022/01/07 03:38:34;;;;;;;6.72;5.25;;;;;;;;;;4995452;28;20629;-49
2022/01/07 03:41:00;;;;;;;8.63;5.75;;;;;;;;;;4995120;28;20200;-49
2022/01/07 03:43:26;;;;;;;7.73;4.27;;;;;;;;;;4995426;28;20165;-49
2022/01/07 03:45:52;;;;;;;8.68;5.63;;;;;;;;;;4995477;28;20424;-49
2022/01/07 03:48:18;;;;;;;9.07;5.25;;;;;;;;;;4995371;28;20667;-49
2022/01/07 03:50:44;;;;;;;10.10;5.23;;;;;;;;;;4994971;28;20205;-49
2022/01/07 03:53:10;;;;;;;6.50;4.43;;;;;;;;;;4995317;28;20765;-49
2022/01/07 03:55:36;;;;;;;15.20;4.83;;;;;;;;;;4995102;28;20769;-49
2022/01/07 03:58:03;;;;;;;6.40;4.20;;;;;;;;;;4995102;28;20772;-49
2022/01/07 04:00:32;;;;;;;5.40;4.75;;;;;;;;;;4995060;28;20169;-49
2022/01/07 04:02:58;;;;;;;9.55;4.90;;;;;;;;;;4994710;28;20185;-49
2022/01/07 04:05:24;;;;;;;11.35;4.50;;;;;;;;;;4995094;28;20263;-49
2022/01/07 04:07:51;;;;;;;7.45;4.70;;;;;;;;;;4995040;28;20645;-51
2022/01/07 04:10:17;;;;;;;10.50;5.03;;;;;;;;;;4994732;28;20209;-50
2022/01/07 04:12:43;;;;;;;5.70;4.85;;;;;;;;;;4993515;28;20657;-51
2022/01/07 04:15:09;;;;;;;5.28;3.13;;;;;;;;;;4994847;28;20647;-51
2022/01/07 04:17:40;;;;;;;10.95;5.70;;;;;;;;;;4994788;28;20176;-51
2022/01/07 04:20:09;;;;;;;15.60;5.57;;;;;;;;;;4994743;28;20573;-49
2022/01/07 04:22:35;;;;;;;11.23;5.10;;;;;;;;;;4994456;28;20272;-49
2022/01/07 04:25:02;;;;;;;7.65;4.20;;;;;;;;;;4994718;28;20263;-48
2022/01/07 04:27:28;;;;;;;11.68;5.20;;;;;;;;;;4994675;28;20190;-49
2022/01/07 04:29:54;;;;;;;6.75;4.65;;;;;;;;;;4994618;28;20204;-49
2022/01/07 04:32:20;;;;;;;3.83;3.50;;;;;;;;;;4994321;28;20197;-50
2022/01/07 04:34:46;;;;;;;10.93;4.57;;;;;;;;;;4994518;28;20888;-51
2022/01/07 04:37:12;;;;;;;16.57;5.80;;;;;;;;;;4994567;28;20177;-49
2022/01/07 04:39:38;;;;;;;6.20;4.77;;;;;;;;;;4994299;28;20807;-49
2022/01/07 04:42:04;;;;;;;6.32;4.00;;;;;;;;;;4994241;28;20423;-49
2022/01/07 04:44:30;;;;;;;5.25;4.22;;;;;;;;;;4994338;28;20161;-49
2022/01/07 04:46:56;;;;;;;4.70;4.00;;;;;;;;;;4994328;28;20172;-49
2022/01/07 04:49:22;;;;;;;8.20;5.00;;;;;;;;;;4994200;28;20483;-49
2022/01/07 04:51:48;;;;;;;6.80;4.53;;;;;;;;;;4993947;28;20435;-49
2022/01/07 04:54:14;;;;;;;6.60;3.70;;;;;;;;;;4994017;28;20436;-49
2022/01/07 04:56:40;;;;;;;4.28;3.88;;;;;;;;;;4994166;28;20414;-49
2022/01/07 04:59:06;;;;;;;9.00;4.40;;;;;;;;;;4993923;28;20684;-50
2022/01/07 05:01:32;;;;;;;9.53;4.20;;;;;;;;;;4993696;28;20421;-49
2022/01/07 05:03:58;;;;;;;4.93;4.37;;;;;;;;;;4993987;28;20405;-49
2022/01/07 05:09:08;;;;;;;11.50;3.45;;;;;;;;;;4994021;28;20419;-49
2022/01/07 05:11:34;;;;;;;7.10;4.23;;;;;;;;;;4993519;28;20197;-49
2022/01/07 05:14:00;;;;;;;7.40;4.87;;;;;;;;;;4993751;28;20413;-49
2022/01/07 05:16:28;;;;;;;14.13;4.90;;;;;;;;;;4993808;28;20404;-49
2022/01/07 05:18:54;;;;;;;4.97;4.13;;;;;;;;;;4993565;28;20465;-49
2022/01/07 05:21:20;;;;;;;5.27;4.60;;;;;;;;;;4993286;28;20181;-49
2022/01/07 05:23:46;;;;;;;10.83;3.93;;;;;;;;;;4993509;28;20424;-49
2022/01/07 05:26:12;;;;;;;5.70;4.17;;;;;;;;;;4993530;28;20404;-49
2022/01/07 05:28:38;;;;;;;7.80;4.20;;;;;;;;;;4993011;28;20821;-49
2022/01/07 05:31:04;;;;;;;7.23;3.53;;;;;;;;;;4993203;28;20428;-49
2022/01/07 05:33:30;;;;;;;6.28;3.75;;;;;;;;;;4993253;28;20445;-50
2022/01/07 05:35:56;;;;;;;5.88;4.05;;;;;;;;;;4993360;28;20252;-51
2022/01/07 05:38:22;;;;;;;8.33;4.40;;;;;;;;;;4993217;28;20820;-49
2022/01/07 05:40:48;;;;;;;12.82;4.63;;;;;;;;;;4992915;28;20416;-49
2022/01/07 05:43:14;;;;;;;4.27;3.87;;;;;;;;;;4993212;28;20169;-49
2022/01/07 05:45:44;;;;;;;7.00;4.50;;;;;;;;;;4993125;28;20467;-49
2022/01/07 05:48:10;;;;;;;9.02;4.00;;;;;;;;;;4993110;28;20752;-48
2022/01/07 05:50:36;;;;;;;4.10;3.50;;;;;;;;;;4992937;28;20260;-49
2022/01/07 05:53:02;;;;;;;6.67;3.70;;;;;;;;;;4993534;28;20424;-50
2022/01/07 05:55:28;;;;;;;7.53;4.50;;;;;;;;;;4992994;28;20499;-50
2022/01/07 05:57:54;;;;;;;10.77;4.18;;;;;;;;;;4992843;28;20405;-51
2022/01/07 06:00:20;;;;;;;6.40;3.80;;;;;;;;;;4992723;28;20231;-50
2022/01/07 06:02:46;;;;;;;5.45;3.17;;;;;;;;;;4992788;28;20522;-49
2022/01/07 06:05:12;;;;;;;5.70;4.57;;;;;;;;;;4992827;28;20252;-50
2022/01/07 06:07:38;;;;;;;4.63;3.92;;;;;;;;;;4992709;28;20471;-50
2022/01/07 06:10:05;;;;;;;4.85;4.30;;;;;;;;;;4992866;28;20187;-50
2022/01/07 06:12:31;;;;;;;4.25;3.90;;;;;;;;;;4992461;28;20197;-50
2022/01/07 06:14:57;;;;;;;6.00;4.30;;;;;;;;;;4992636;28;20176;-50
2022/01/07 06:17:24;;;;;;;5.72;4.45;;;;;;;;;;4992627;28;20408;-50
2022/01/07 06:19:50;;;;;;;17.63;4.20;;;;;;;;;;4992598;28;20232;-50
2022/01/07 06:22:16;;;;;;;6.73;4.20;;;;;;;;;;4992295;28;20216;-50
2022/01/07 06:24:41;;;;;;;4.70;4.00;;;;;;;;;;4992515;28;20502;-51
2022/01/07 06:27:08;;;;;;;4.50;3.70;;;;;;;;;;4992584;28;20921;-51
2022/01/07 06:29:34;;;;;;;13.45;4.68;;;;;;;;;;4992481;28;20400;-50
2022/01/07 06:32:00;;;;;;;4.53;3.35;;;;;;;;;;4992240;28;20189;-50
2022/01/07 06:34:25;;;;;;;6.40;3.90;;;;;;;;;;4992470;28;20175;-50
2022/01/07 06:36:52;;;;;;;3.93;3.60;;;;;;;;;;4992454;28;20427;-49
2022/01/07 06:39:19;;;;;;;3.90;3.30;;;;;;;;;;4992248;28;20451;-50
2022/01/07 06:41:50;;;;;;;9.25;4.43;;;;;;;;;;4996135;28;20216;-50
2022/01/07 06:44:16;;;;;;;5.35;4.40;;;;;;;;;;4996503;28;20173;-50
2022/01/07 06:46:42;;;;;;;4.77;3.90;;;;;;;;;;4996287;28;20714;-50
2022/01/07 06:49:08;;;;;;;8.97;4.47;;;;;;;;;;4996383;28;20751;-50
2022/01/07 06:51:34;;;;;;;4.87;4.40;;;;;;;;;;4995865;28;20798;-50
2022/01/07 06:54:00;;;;;;;6.18;4.90;;;;;;;;;;4996301;28;20486;-50
2022/01/07 06:56:27;;;;;;;10.15;4.60;;;;;;;;;;4995759;28;20195;-50
2022/01/07 06:58:54;;;;;;;6.05;4.18;;;;;;;;;;4995883;28;20280;-52
2022/01/07 07:01:20;;;;;;;9.25;5.20;;;;;;;;;;4995665;28;20594;-49
2022/01/07 07:03:46;;;;;;;5.07;4.28;;;;;;;;;;4996166;28;20165;-50
2022/01/07 07:06:12;;;;;;;5.63;4.45;;;;;;;;;;4996067;28;20192;-50
2022/01/07 07:08:38;;;;;;;5.95;4.20;;;;;;;;;;4996085;28;20197;-50
2022/01/07 07:11:04;;;;;;;8.20;3.90;;;;;;;;;;4995684;28;20720;-50
2022/01/07 07:13:30;;;;;;;7.80;5.90;;;;;;;;;;4995786;28;20419;-50
2022/01/07 07:15:56;;;;;;;3.03;2.57;;;;;;;;;;4995966;28;20437;-50
2022/01/07 07:18:22;;;;;;;7.23;4.50;;;;;;;;;;4995793;28;21018;-50
2022/01/07 07:20:48;;;;;;;6.10;4.20;;;;;;;;;;4995550;28;20407;-50
2022/01/07 07:23:14;;;;;;;4.40;4.00;;;;;;;;;;4995634;28;20404;-50
2022/01/07 07:25:40;;;;;;;10.40;5.20;;;;;;;;;;4995580;28;20490;-50
2022/01/07 07:28:06;;;;;;;5.75;3.85;;;;;;;;;;4995085;28;20403;-50
2022/01/07 07:30:39;;;;;;;6.13;4.70;;;;;;;;;;4995577;28;20165;-50
2022/01/07 07:38:42;;;;;;;4.07;3.30;;;;;;;;;;4995367;28;20320;-51
2022/01/07 07:41:10;;;;;;;6.25;3.78;;;;;;;;;;4995019;28;20209;-50
2022/01/07 07:43:37;;;;;;;5.05;4.65;;;;;;;;;;4995397;28;20161;-50
2022/01/07 07:46:04;;;;;;;5.13;4.53;;;;;;;;;;4995360;28;20183;-51
2022/01/07 07:48:30;;;;;;;8.40;6.13;;;;;;;;;;4995219;28;20542;-50
2022/01/07 07:50:56;;;;;;;5.60;4.50;;;;;;;;;;4994386;28;20165;-51
2022/01/07 07:53:22;;;;;;;4.37;3.60;;;;;;;;;;4995237;28;20172;-49
2022/01/07 07:55:53;;;;;;;4.80;4.40;;;;;;;;;;4995369;28;20516;-50
2022/01/07 07:58:19;;;;;;;5.95;5.32;;;;;;;;;;4995142;28;20466;-50
2022/01/07 08:00:46;;;;;;;7.05;5.45;;;;;;;;;;4994743;28;20212;-50
2022/01/07 08:03:12;;;;;;;5.50;5.00;;;;;;;;;;4995113;28;20621;-51
2022/01/07 08:05:38;;;;;;;5.50;4.85;;;;;;;;;;4994907;28;20207;-50
2022/01/07 08:08:04;;;;;;;6.80;5.63;;;;;;;;;;4995240;28;20628;-50
2022/01/07 08:10:30;;;;;;;10.05;5.82;;;;;;;;;;4994863;28;20397;-50
2022/01/07 08:18:18;;;;;;;4.43;4.13;;;;;;;;;;4994906;28;20228;-51
2022/01/07 08:20:44;;;;;;;5.72;4.50;;;;;;;;;;4994368;28;20169;-50
2022/01/07 08:23:10;;;;;;;4.60;4.20;;;;;;;;;;4994666;28;20168;-50
2022/01/07 08:25:37;;;;;;;8.38;5.60;;;;;;;;;;4994663;28;20173;-50
2022/01/07 08:28:04;;;;;;;5.93;4.72;;;;;;;;;;4994651;28;20460;-50
2022/01/07 08:30:37;;;;;;;4.72;4.15;;;;;;;;;;4994404;28;20579;-50
2022/01/07 08:35:48;;;;;;;6.78;5.70;;;;;;;;;;4995466;28;20230;-50
2022/01/07 08:38:15;;;;;;;8.20;5.63;;;;;;;;;;4994128;28;20559;-50
2022/01/07 08:40:41;;;;;;;15.27;5.38;;;;;;;;;;4994185;28;20248;-50
2022/01/07 08:43:08;;;;;;;8.70;6.43;;;;;;;;;;4994144;28;20166;-50
2022/01/07 08:45:34;;;;;;;8.05;5.30;;;;;;;;;;4994566;28;20161;-50
2022/01/07 08:48:00;;;;;;;8.25;5.70;;;;;;;;;;4994306;28;20177;-50
2022/01/07 08:50:26;;;;;;;3.38;3.08;;;;;;;;;;4993853;28;20172;-50
2022/01/07 08:52:55;;;;;;;4.60;3.53;;;;;;;;;;4993892;28;20237;-49
2022/01/07 08:55:21;;;;;;;4.57;4.18;;;;;;;;;;4994148;28;20752;-50
2022/01/07 08:57:47;;;;;;;7.70;5.90;;;;;;;;;;4993855;28;20231;-49
2022/01/07 09:00:13;;;;;;;5.33;4.40;;;;;;;;;;4993712;28;20251;-50
2022/01/07 09:02:39;;;;;;;6.30;4.78;;;;;;;;;;4992707;28;20947;-51
2022/01/07 09:05:06;;;;;;;8.40;4.80;;;;;;;;;;4993789;28;20161;-49
2022/01/07 09:07:33;;;;;;;11.50;5.55;;;;;;;;;;4993901;28;20539;-50
2022/01/07 09:09:59;;;;;;;7.10;5.43;;;;;;;;;;4994386;28;20188;-51
2022/01/07 09:12:25;;;;;;;4.33;4.03;;;;;;;;;;4993878;28;20668;-51
2022/01/07 09:14:51;;;;;;;15.23;6.13;;;;;;;;;;4992855;28;20893;-51
2022/01/07 09:17:17;;;;;;;5.57;5.05;;;;;;;;;;4994158;28;20777;-51
2022/01/07 09:19:43;;;;;;;5.43;4.93;;;;;;;;;;4993961;28;20201;-51
2022/01/07 09:22:09;;;;;;;12.43;5.00;;;;;;;;;;4993804;28;20604;-51
2022/01/07 09:24:35;;;;;;;8.38;4.88;;;;;;;;;;4994138;28;20242;-51
2022/01/07 09:27:01;;;;;;;6.28;4.80;;;;;;;;;;4994023;28;20161;-51
2022/01/07 09:29:27;;;;;;;8.33;5.33;;;;;;;;;;4994013;28;20238;-51
2022/01/07 09:31:54;;;;;;;5.20;4.80;;;;;;;;;;4993686;28;20412;-51
2022/01/07 09:34:20;;;;;;;6.25;4.70;;;;;;;;;;4993898;28;20400;-51
2022/01/07 09:36:46;;;;;;;7.18;5.20;;;;;;;;;;4992813;28;20177;-51
2022/01/07 09:39:13;;;;;;;6.20;4.75;;;;;;;;;;4993615;28;20660;-51
2022/01/07 09:41:39;;;;;;;10.23;5.05;;;;;;;;;;4993719;28;20236;-51
2022/01/07 09:44:08;;;;;;;3.90;3.60;;;;;;;;;;4993851;28;20167;-51
2022/01/07 09:46:34;;;;;;;7.82;4.88;;;;;;;;;;4993693;28;20173;-51
2022/01/07 09:49:00;;;;;;;5.90;4.20;;;;;;;;;;4993720;28;20238;-51
2022/01/07 09:51:27;;;;;;;6.27;4.90;;;;;;;;;;4993171;28;20467;-51
2022/01/07 09:53:54;;;;;;;8.88;5.35;;;;;;;;;;4993268;28;20442;-52
2022/01/07 09:56:20;;;;;;;6.13;4.10;;;;;;;;;;4993734;28;20274;-51
2022/01/07 09:58:47;;;;;;;5.97;4.90;;;;;;;;;;4993756;28;20820;-51
2022/01/07 10:01:19;;;;;;;7.88;4.68;;;;;;;;;;4993078;28;20502;-51
2022/01/07 10:03:46;;;;;;;6.78;4.40;;;;;;;;;;4993178;28;20171;-51
2022/01/07 10:06:17;;;;;;;8.95;4.40;;;;;;;;;;4993213;28;20278;-51
2022/01/07 10:08:43;;;;;;;8.35;5.00;;;;;;;;;;4993176;28;20228;-51
2022/01/07 10:11:11;;;;;;;5.03;4.57;;;;;;;;;;4992934;28;20618;-51
2022/01/07 10:13:37;;;;;;;6.30;4.35;;;;;;;;;;4993081;28;20774;-51
2022/01/07 10:16:33;;;;;;;5.27;4.77;;;;;;;;;;4993287;28;20680;-51
2022/01/07 10:18:59;;;;;;;4.88;4.38;;;;;;;;;;4980320;28;20467;-51
2022/01/07 10:21:25;;;;;;;6.17;4.50;;;;;;;;;;4992693;28;20184;-51
2022/01/07 10:24:01;;;;;;;7.10;3.87;;;;;;;;;;4992898;28;20510;-51
2022/01/07 10:26:29;;;;;;;5.20;4.70;;;;;;;;;;4992953;28;20418;-51
2022/01/07 10:28:55;;;;;;;4.60;4.20;;;;;;;;;;4992875;28;20180;-51
2022/01/07 10:31:22;;;;;;;11.90;4.90;;;;;;;;;;4991234;28;20197;-51
2022/01/07 10:33:49;;;;;;;4.80;4.43;;;;;;;;;;4992746;28;20541;-51
2022/01/07 10:36:16;;;;;;;4.00;3.60;;;;;;;;;;4992783;28;20165;-51
2022/01/07 10:38:48;;;;;;;7.50;3.88;;;;;;;;;;4992877;28;20692;-51
2022/01/07 10:41:15;;;;;;;4.35;3.95;;;;;;;;;;4992853;28;20319;-51
2022/01/07 10:43:41;;;;;;;4.90;4.38;;;;;;;;;;4992855;28;20530;-51
2022/01/07 10:46:16;;;;;;;6.20;4.57;;;;;;;;;;4992685;28;20172;-51
2022/01/07 10:48:55;;;;;;;7.10;3.75;;;;;;;;;;4992954;28;20445;-51
2022/01/07 10:51:23;;;;;;;4.32;3.95;;;;;;;;;;4992369;28;20189;-51
2022/01/07 10:53:54;;;;;;;4.18;3.78;;;;;;;;;;4992726;28;20625;-51
2022/01/07 10:56:21;;;;;;;6.28;3.90;;;;;;;;;;4992748;28;20180;-51
2022/01/07 10:58:47;;;;;;;4.07;3.67;;;;;;;;;;4992588;28;20227;-51
2022/01/07 11:01:22;;;;;;;3.47;3.27;;;;;;;;;;4991140;28;20676;-52
2022/01/07 11:03:49;;;;;;;3.65;3.42;;;;;;;;;;4992781;28;20458;-51
2022/01/07 11:06:15;;;;;;;4.75;3.72;;;;;;;;;;4993210;28;20688;-51
2022/01/07 11:08:41;;;;;;;3.85;3.50;;;;;;;;;;4992617;28;20224;-51
2022/01/07 11:11:08;;;;;;;3.30;3.10;;;;;;;;;;4992022;28;20204;-51
2022/01/07 11:13:35;;;;;;;7.13;3.90;;;;;;;;;;4992664;28;20264;-51
2022/01/07 11:16:05;;;;;;;7.05;3.53;;;;;;;;;;4992540;28;20224;-51
2022/01/07 11:18:32;;;;;;;3.95;3.65;;;;;;;;;;4992366;28;20757;-51
2022/01/07 11:20:59;;;;;;;4.47;4.07;;;;;;;;;;4992116;28;20169;-51
2022/01/07 11:23:31;;;;;;;11.40;3.80;;;;;;;;;;4992405;28;20169;-51
2022/01/07 11:26:01;;;;;;;4.88;3.75;;;;;;;;;;4993381;28;20239;-51
2022/01/07 11:28:28;;;;;;;5.00;4.25;;;;;;;;;;4996310;28;20645;-51
2022/01/07 11:31:03;;;;;;;4.30;3.50;;;;;;;;;;4995606;28;20173;-51
2022/01/07 11:33:30;;;;;;;4.43;3.90;;;;;;;;;;4996173;28;20604;-51
2022/01/07 11:35:56;;;;;;;4.07;3.35;;;;;;;;;;4995880;28;20161;-51
2022/01/07 11:38:35;;;;;;;3.40;3.20;;;;;;;;;;4995715;28;20184;-51
2022/01/07 11:41:02;;;;;;;7.43;3.38;;;;;;;;;;4995473;28;20172;-51
2022/01/07 11:43:33;;;;;;;7.35;4.00;;;;;;;;;;4995956;28;20169;-51
2022/01/07 11:46:00;;;;;;;7.22;4.07;;;;;;;;;;4995670;28;20165;-51
2022/01/07 11:48:28;;;;;;;7.22;3.28;;;;;;;;;;4995827;28;20168;-51
2022/01/07 11:50:58;;;;;;;4.30;3.90;;;;;;;;;;4995258;28;20176;-51
2022/01/07 11:53:44;;;;;;;4.75;3.95;;;;;;;;;;4996386;28;20577;-52
2022/01/07 11:56:13;;;;;;;5.07;4.25;;;;;;;;;;4996736;28;20181;-50
2022/01/07 11:58:43;;;;;;;4.57;3.90;;;;;;;;;;4996519;28;20727;-51
2022/01/07 12:01:34;;;;;;;6.28;4.32;;;;;;;;;;4995015;28;20208;-51
2022/01/07 12:04:26;;;;;;;4.07;3.70;;;;;;;;;;4988500;28;20256;-49
2022/01/07 12:06:53;;;;;;;5.53;3.38;;;;;;;;;;4994977;28;20192;-49
2022/01/07 12:09:20;;;;;;;6.00;4.55;;;;;;;;;;4994696;28;20177;-49
2022/01/07 12:12:05;;;;;;;7.25;4.68;;;;;;;;;;4994602;28;20185;-49
2022/01/07 12:14:43;;;;;;;4.80;4.40;;;;;;;;;;4994779;28;20257;-49
2022/01/07 12:17:11;;;;;;;4.57;3.80;;;;;;;;;;4994813;28;20649;-50
2022/01/07 12:19:37;;;;;;;6.07;3.80;;;;;;;;;;4994496;28;20191;-49
2022/01/07 12:22:07;;;;;;;7.20;4.10;;;;;;;;;;4994476;28;20193;-50
2022/01/07 12:24:33;;;;;;;4.45;4.13;;;;;;;;;;4994204;28;20454;-50
2022/01/07 12:27:23;;;;;;;4.93;3.80;;;;;;;;;;4994447;28;20200;-51
2022/01/07 12:29:54;;;;;;;5.40;4.13;;;;;;;;;;4994513;28;20164;-50
2022/01/07 12:32:20;;;;;;;3.65;3.28;;;;;;;;;;4994080;28;20665;-50
2022/01/07 12:34:48;;;;;;;3.60;3.30;;;;;;;;;;4994582;28;20177;-49
2022/01/07 12:37:15;;;;;;;3.90;3.53;;;;;;;;;;4993408;28;20177;-50
2022/01/07 12:39:42;;;;;;;4.15;3.85;;;;;;;;;;4993910;28;20200;-49
2022/01/07 12:42:10;;;;;;;4.45;4.05;;;;;;;;;;4994120;28;20204;-50
2022/01/07 12:44:37;;;;;;;4.30;3.90;;;;;;;;;;4994246;28;20200;-49
2022/01/07 12:47:03;;;;;;;6.10;3.53;;;;;;;;;;4994244;28;20176;-51
2022/01/07 12:49:38;;;;;;;2.95;2.75;;;;;;;;;;4994234;28;20546;-50
2022/01/07 12:52:05;;;;;;;5.65;3.50;;;;;;;;;;4993860;28;20246;-49
2022/01/07 12:54:31;;;;;;;4.00;3.70;;;;;;;;;;4994118;28;20624;-49
2022/01/07 12:56:57;;;;;;;4.38;3.70;;;;;;;;;;4994155;28;20169;-50
2022/01/07 12:59:25;;;;;;;6.53;3.30;;;;;;;;;;4993823;28;20559;-51
2022/01/07 13:01:51;;;;;;;4.30;3.97;;;;;;;;;;4993748;28;20424;-49
2022/01/07 13:04:19;;;;;;;8.93;4.07;;;;;;;;;;4993934;28;20162;-49
2022/01/07 13:06:55;;;;;;;3.75;3.55;;;;;;;;;;4993949;28;20403;-49
2022/01/07 13:09:22;;;;;;;3.60;3.30;;;;;;;;;;4993749;28;20191;-49
2022/01/07 13:11:49;;;;;;;4.30;3.47;;;;;;;;;;4993435;28;20199;-51
2022/01/07 13:14:16;;;;;;;4.28;3.70;;;;;;;;;;4993720;28;20625;-49
2022/01/07 13:16:42;;;;;;;3.97;3.67;;;;;;;;;;4993763;28;20183;-49
2022/01/07 13:19:09;;;;;;;4.40;3.92;;;;;;;;;;4993584;28;20776;-49
2022/01/07 13:21:36;;;;;;;4.85;3.33;;;;;;;;;;4993354;28;20199;-48
2022/01/07 13:24:03;;;;;;;7.25;4.10;;;;;;;;;;4993412;28;20193;-49
2022/01/07 13:26:38;;;;;;;5.05;3.70;;;;;;;;;;4993319;28;20679;-49
2022/01/07 13:29:18;;;;;;;4.38;3.10;;;;;;;;;;4993451;28;20264;-49
2022/01/07 13:31:46;;;;;;;9.52;4.95;;;;;;;;;;4993192;28;20235;-50
2022/01/07 13:34:12;;;;;;;4.57;3.67;;;;;;;;;;4993428;28;20569;-49
2022/01/07 13:36:44;;;;;;;7.75;4.40;;;;;;;;;;4993200;28;20648;-50
2022/01/07 13:39:10;;;;;;;9.43;6.07;;;;;;;;;;4993137;28;20567;-49
2022/01/07 13:41:52;;;;;;;9.73;4.95;;;;;;;;;;4993033;28;20192;-52
2022/01/07 13:44:17;;;;;;;4.25;3.85;;;;;;;;;;4993368;28;20175;-49
2022/01/07 13:46:48;;;;;;;6.10;4.03;;;;;;;;;;4993077;28;20252;-50
2022/01/07 13:49:14;;;;;;;5.13;4.38;;;;;;;;;;4991291;28;20408;-52
2022/01/07 13:51:49;;;;;;;10.13;4.40;;;;;;;;;;4992776;28;20555;-49
2022/01/07 13:54:16;;;;;;;8.43;5.75;;;;;;;;;;4992990;28;20883;-49
2022/01/07 13:56:45;;;;;;;4.82;4.35;;;;;;;;;;4992914;28;20644;-49
2022/01/07 13:59:12;;;;;;;8.93;4.85;;;;;;;;;;4992871;28;20196;-49
2022/01/07 14:01:51;;;;;;;9.27;5.35;;;;;;;;;;4992664;28;20263;-49
2022/01/07 14:04:20;;;;;;;9.00;5.18;;;;;;;;;;4992932;28;20165;-49
2022/01/07 14:06:47;;;;;;;7.53;5.43;;;;;;;;;;4992810;28;20168;-50
2022/01/07 14:09:18;;;;;;;10.93;5.68;;;;;;;;;;4992736;28;20180;-49
2022/01/07 14:12:03;;;;;;;6.20;4.30;;;;;;;;;;4992455;28;20185;-49
2022/01/07 14:14:36;;;;;;;7.03;4.70;;;;;;;;;;4992698;28;20525;-52
2022/01/07 14:17:07;;;;;;;9.05;4.38;;;;;;;;;;4992662;28;20629;-48
2022/01/07 14:19:53;;;;;;;6.82;4.32;;;;;;;;;;4992493;28;20279;-49
2022/01/07 14:22:19;;;;;;;7.93;4.55;;;;;;;;;;4992165;28;20235;-48
2022/01/07 14:24:45;;;;;;;7.47;3.50;;;;;;;;;;4992329;28;20275;-48
2022/01/07 14:27:11;;;;;;;4.90;3.43;;;;;;;;;;4992411;28;20401;-48
2022/01/07 14:29:36;;;;;;;14.87;5.57;;;;;;;;;;4992391;28;20405;-48
2022/01/07 14:32:02;;;;;;;4.63;4.20;;;;;;;;;;4992172;28;20431;-49
2022/01/07 14:34:28;;;;;;;3.55;3.25;;;;;;;;;;4992443;28;20458;-49
2022/01/07 14:36:54;;;;;;;5.80;4.13;;;;;;;;;;4992477;28;20165;-49
2022/01/07 14:39:20;;;;;;;3.67;3.37;;;;;;;;;;4992146;28;20660;-51
2022/01/07 14:41:46;;;;;;;4.27;3.90;;;;;;;;;;4992246;28;21009;-48
2022/01/07 14:44:12;;;;;;;4.17;3.80;;;;;;;;;;4992453;28;20910;-49
2022/01/07 14:46:39;;;;;;;2.87;2.50;;;;;;;;;;4992305;28;20842;-49
2022/01/07 14:49:05;;;;;;;3.30;3.03;;;;;;;;;;4992287;28;21140;-53
2022/01/07 14:51:31;;;;;;;3.93;2.90;;;;;;;;;;4992073;28;20205;-49
2022/01/07 14:53:57;;;;;;;5.40;3.13;;;;;;;;;;4992252;28;20761;-49
2022/01/07 14:56:23;;;;;;;8.23;3.00;;;;;;;;;;4993021;28;20652;-51
2022/01/07 14:58:49;;;;;;;2.30;1.93;;;;;;;;;;4992670;28;20982;-51